Terminal Aerodrome Forecast
Issued by NWS

Home | Current Version | Previous Version | Text Only | Print | Product List | Glossary On
Versions: 1 2 3 4 5 6 7 8 9 10 11 12 13 14 15 16 17 18 19 20
000
FTUS41 KBGM 180901 AAA
TAFRME
TAF AMD
KRME 180901Z 1809/1906 28006KT 5SM -SN OVC015
      TEMPO 1809/1810 2SM -SN
     FM181300 29010KT P6SM BKN020
     FM182000 27006KT P6SM SCT050=

USA.gov is the U.S. government's official web portal to all federal, state and local government web resources and services.